createdAt,value
2022-11-24T00:05:24.241Z,0.73
2022-11-24T00:10:58.577Z,0.80
2022-11-24T00:16:35.109Z,1.00
2022-11-24T00:19:24.632Z,1.33
2022-11-24T00:24:57.839Z,1.00
2022-11-24T00:27:46.350Z,1.10
2022-11-24T00:30:35.688Z,1.00
2022-11-24T00:33:24.812Z,1.30
2022-11-24T00:39:03.862Z,0.87
2022-11-24T00:44:39.435Z,1.70
2022-11-24T00:53:00.867Z,1.37
2022-11-24T00:58:33.870Z,1.40
2022-11-24T01:01:24.145Z,1.40
2022-11-24T01:04:13.555Z,1.40
2022-11-24T01:09:49.813Z,1.00
2022-11-24T01:12:38.545Z,1.10
2022-11-24T01:15:26.771Z,1.30
2022-11-24T01:21:18.387Z,1.80
2022-11-24T01:26:55.389Z,1.20
2022-11-24T01:32:24.842Z,1.40
2022-11-24T01:38:00.671Z,1.30
2022-11-24T01:43:30.648Z,1.30
2022-11-24T01:49:05.617Z,1.30
2022-11-24T01:54:38.716Z,1.60
2022-11-24T01:57:28.602Z,1.30
2022-11-24T02:03:11.819Z,1.47
2022-11-24T02:08:50.668Z,1.40
2022-11-24T02:14:23.645Z,1.73
2022-11-24T02:17:11.955Z,1.70
2022-11-24T02:20:01.806Z,1.40
2022-11-24T02:25:39.837Z,1.87
2022-11-24T02:28:30.148Z,1.50
2022-11-24T02:31:18.517Z,1.30
2022-11-24T02:34:07.042Z,1.50
2022-11-24T02:39:42.209Z,1.93
2022-11-24T02:45:20.544Z,1.43
2022-11-24T02:48:09.276Z,1.33
2022-11-24T02:50:57.339Z,1.27
2022-11-24T02:53:46.688Z,1.50
2022-11-24T02:56:34.746Z,1.50
2022-11-24T03:02:11.341Z,1.37
2022-11-24T03:07:45.915Z,1.20
2022-11-24T03:13:27.118Z,1.10
2022-11-24T03:16:15.535Z,1.10
2022-11-24T03:19:04.670Z,1.20
2022-11-24T03:24:54.085Z,1.00
2022-11-24T03:27:42.354Z,1.30
2022-11-24T03:30:31.115Z,0.90
2022-11-24T03:36:21.972Z,1.53
2022-11-24T03:41:59.116Z,1.30
2022-11-24T03:47:29.183Z,1.40
2022-11-24T03:50:20.092Z,1.10
2022-11-24T03:55:58.136Z,1.40
2022-11-24T04:01:32.073Z,1.30
2022-11-24T04:07:06.078Z,1.00
2022-11-24T04:09:54.743Z,0.90
2022-11-24T04:12:47.191Z,0.80
2022-11-24T04:15:35.735Z,1.30
2022-11-24T04:21:10.957Z,1.17
2022-11-24T04:23:59.319Z,0.70
2022-11-24T04:29:35.202Z,1.00
2022-11-24T04:35:04.399Z,1.23
2022-11-24T04:37:52.812Z,1.10
2022-11-24T04:43:27.160Z,1.13
2022-11-24T04:46:17.911Z,1.20
2022-11-24T04:51:56.469Z,1.00
2022-11-24T04:54:45.310Z,0.80
2022-11-24T04:57:33.887Z,1.20
2022-11-24T05:03:11.816Z,1.30
2022-11-24T05:06:01.384Z,1.10
2022-11-24T05:08:50.123Z,1.13
2022-11-24T05:11:39.236Z,0.90
2022-11-24T05:17:17.397Z,1.40
2022-11-24T05:22:55.014Z,1.00
2022-11-24T05:28:28.456Z,1.00
2022-11-24T05:34:04.603Z,1.00
2022-11-24T05:36:56.378Z,0.80
2022-11-24T05:42:46.628Z,0.80
2022-11-24T05:48:18.981Z,1.57
2022-11-24T05:51:09.383Z,0.77
2022-11-24T05:53:57.727Z,0.97
2022-11-24T05:59:25.990Z,1.17
2022-11-24T06:02:14.862Z,1.10
2022-11-24T06:05:04.462Z,1.10
2022-11-24T06:10:43.931Z,1.00
2022-11-24T06:13:35.158Z,1.40
2022-11-24T06:16:23.860Z,1.60
2022-11-24T06:21:58.769Z,1.07
2022-11-24T06:24:49.699Z,1.37
2022-11-24T06:27:38.279Z,1.10
2022-11-24T06:30:27.942Z,1.10
2022-11-24T06:33:16.200Z,1.43
2022-11-24T06:38:45.703Z,1.40
2022-11-24T06:41:34.949Z,2.03
2022-11-24T06:47:11.612Z,1.50
2022-11-24T06:50:00.859Z,1.47
2022-11-24T06:55:35.944Z,1.53
2022-11-24T07:01:16.705Z,1.20
2022-11-24T07:06:47.465Z,1.20
2022-11-24T07:12:17.384Z,1.60
2022-11-24T07:17:54.243Z,1.57
2022-11-24T07:20:43.265Z,1.20
2022-11-24T07:26:16.236Z,1.37
2022-11-24T07:31:52.548Z,1.60
2022-11-24T07:34:41.341Z,1.33
2022-11-24T07:43:03.361Z,1.37
2022-11-24T07:48:49.822Z,1.30
2022-11-24T07:51:39.310Z,2.10
2022-11-24T07:57:16.389Z,1.30
2022-11-24T08:02:50.135Z,1.40
2022-11-24T08:08:20.806Z,1.67
2022-11-24T08:11:10.722Z,1.67
2022-11-24T08:14:02.321Z,1.30
2022-11-24T08:19:36.577Z,1.70
2022-11-24T08:25:14.070Z,1.80
2022-11-24T08:28:04.023Z,1.70
2022-11-24T08:30:54.787Z,1.67
2022-11-24T08:36:36.801Z,1.60
2022-11-24T08:42:17.856Z,2.03
2022-11-24T08:45:20.347Z,2.07
2022-11-24T08:47:59.492Z,2.07
2022-11-24T09:07:24.579Z,1.53
2022-11-24T09:10:15.826Z,1.67
2022-11-24T09:13:06.242Z,1.80
2022-11-24T09:18:35.960Z,2.00
2022-11-24T09:24:19.385Z,1.33
2022-11-24T09:29:58.825Z,1.77
2022-11-24T09:35:33.929Z,1.30
2022-11-24T09:38:22.739Z,1.43
2022-11-24T09:41:39.269Z,1.63
2022-11-24T09:53:21.224Z,1.30
2022-11-24T09:59:11.802Z,1.57
2022-11-24T10:04:48.859Z,1.60
2022-11-24T10:10:25.117Z,1.60
2022-11-24T10:19:04.002Z,1.77
2022-11-24T10:22:01.045Z,1.60
2022-11-24T10:25:21.244Z,1.50
2022-11-24T10:28:13.129Z,1.90
2022-11-24T10:33:51.578Z,1.60
2022-11-24T10:36:43.608Z,1.47
2022-11-24T10:39:35.479Z,1.50
2022-11-24T10:42:27.014Z,1.80
2022-11-24T10:47:59.804Z,1.70
2022-11-24T10:53:35.823Z,2.07
2022-11-24T10:56:24.686Z,1.70
2022-11-24T11:02:34.824Z,1.60
2022-11-24T11:08:40.091Z,1.67
2022-11-24T11:11:30.639Z,2.03
2022-11-24T11:17:37.172Z,1.60
2022-11-24T11:20:33.614Z,1.77
2022-11-24T11:26:22.678Z,1.80
2022-11-24T11:34:58.503Z,1.63
2022-11-24T11:37:47.447Z,2.73
2022-11-24T11:46:11.620Z,1.53
2022-11-24T11:48:59.630Z,1.80
2022-11-24T11:54:44.351Z,1.70
2022-11-24T12:00:17.689Z,1.93
2022-11-24T12:09:22.193Z,1.50
2022-11-24T12:15:03.472Z,1.97
2022-11-24T12:20:40.746Z,1.90
2022-11-24T12:26:20.258Z,1.80
2022-11-24T12:35:16.138Z,1.80
2022-11-24T12:38:12.166Z,1.43
2022-11-24T12:46:47.228Z,1.50
2022-11-24T12:49:39.932Z,1.23
2022-11-24T12:55:18.889Z,1.47
2022-11-24T13:01:16.175Z,1.53
2022-11-24T13:04:10.161Z,1.37
2022-11-24T13:10:40.498Z,1.50
2022-11-24T13:22:06.974Z,1.40
2022-11-24T13:25:21.387Z,1.43
2022-11-24T13:28:20.321Z,2.00
2022-11-24T13:34:20.025Z,1.73
2022-11-24T13:40:05.131Z,1.77
2022-11-24T13:46:10.956Z,1.47
2022-11-24T13:49:02.675Z,1.47
2022-11-24T14:00:25.312Z,1.60
2022-11-24T14:06:05.471Z,1.70
2022-11-24T14:11:33.220Z,1.70
2022-11-24T14:17:11.039Z,1.30
2022-11-24T14:20:00.038Z,1.30
2022-11-24T14:25:36.501Z,1.40
2022-11-24T14:28:27.696Z,1.60
2022-11-24T14:34:17.856Z,1.50
2022-11-24T14:39:51.976Z,1.20
2022-11-24T14:42:41.022Z,1.73
2022-11-24T14:45:29.417Z,1.20
2022-11-24T14:48:17.935Z,1.57
2022-11-24T14:51:14.230Z,1.40
2022-11-24T14:59:45.581Z,1.33
2022-11-24T15:05:51.306Z,1.40
2022-11-24T15:08:42.966Z,1.70
2022-11-24T15:14:37.308Z,1.70
2022-11-24T15:20:19.424Z,1.40
2022-11-24T15:23:23.559Z,1.40
2022-11-24T15:29:25.814Z,1.00
2022-11-24T15:32:16.648Z,1.20
2022-11-24T15:37:44.048Z,1.40
2022-11-24T15:40:34.327Z,1.40
2022-11-24T15:46:13.636Z,1.20
2022-11-24T15:51:45.720Z,1.20
2022-11-24T15:57:26.777Z,1.37
2022-11-24T16:03:38.476Z,1.40
2022-11-24T16:08:43.994Z,1.27
2022-11-24T16:17:04.212Z,1.07
2022-11-24T16:20:00.274Z,1.40
2022-11-24T16:22:47.235Z,1.43
2022-11-24T16:28:22.807Z,1.10
2022-11-24T16:31:12.470Z,1.17
2022-11-24T16:34:05.145Z,1.27
2022-11-24T16:36:53.284Z,1.33
2022-11-24T16:42:21.981Z,1.53
2022-11-24T16:48:02.963Z,1.33
2022-11-24T16:53:39.004Z,1.47
2022-11-24T16:56:27.609Z,1.40
2022-11-24T17:01:59.691Z,1.67
2022-11-24T17:04:49.908Z,1.70
2022-11-24T17:07:39.159Z,1.60
2022-11-24T17:13:17.459Z,2.20
2022-11-24T17:18:56.206Z,1.87
2022-11-24T17:24:30.491Z,2.07
2022-11-24T17:29:59.787Z,1.67
2022-11-24T17:35:36.852Z,1.90
2022-11-24T17:38:24.991Z,1.60
2022-11-24T17:41:14.428Z,1.43
2022-11-24T17:46:48.769Z,1.77
2022-11-24T17:49:37.674Z,1.60
2022-11-24T17:52:27.498Z,1.40
2022-11-24T17:58:05.632Z,1.50
2022-11-24T18:00:54.889Z,1.67
2022-11-24T18:03:45.858Z,1.80
2022-11-24T18:09:19.054Z,2.07
2022-11-24T18:12:08.492Z,2.13
2022-11-24T18:17:47.682Z,2.53
2022-11-24T18:23:27.869Z,2.43
2022-11-24T18:29:06.856Z,2.53
2022-11-24T18:34:49.295Z,2.83
2022-11-24T18:41:09.993Z,2.60
2022-11-24T18:47:09.314Z,3.07
2022-11-24T18:52:41.602Z,3.40
2022-11-24T18:58:57.885Z,3.20
2022-11-24T19:04:41.504Z,3.27
2022-11-24T19:07:31.508Z,3.77
2022-11-24T19:10:21.071Z,3.10
2022-11-24T19:16:14.257Z,3.37
2022-11-24T19:21:49.377Z,3.33
2022-11-24T19:27:26.277Z,3.37
2022-11-24T19:30:15.273Z,3.73
2022-11-24T19:38:30.397Z,5.37
2022-11-24T19:44:01.993Z,4.77
2022-11-24T19:46:59.047Z,3.27
2022-11-24T19:52:29.623Z,3.50
2022-11-24T19:58:04.336Z,3.73
2022-11-24T20:00:53.302Z,3.60
2022-11-24T20:03:46.024Z,3.80
2022-11-24T20:09:41.055Z,3.63
2022-11-24T20:15:13.273Z,3.80
2022-11-24T20:18:03.888Z,3.63
2022-11-24T20:36:28.987Z,3.90
2022-11-24T20:39:20.743Z,3.70
2022-11-24T20:42:09.683Z,3.90
2022-11-24T20:45:02.511Z,4.93
2022-11-24T20:50:51.265Z,3.83
2022-11-24T20:56:33.250Z,3.10
2022-11-24T20:59:25.980Z,3.30
2022-11-24T21:07:53.341Z,3.00
2022-11-24T21:13:32.889Z,3.23
2022-11-24T21:20:20.577Z,2.63
2022-11-24T21:25:55.812Z,2.60
2022-11-24T21:37:07.058Z,2.80
2022-11-24T21:39:55.189Z,2.70
2022-11-24T21:45:24.160Z,2.63
2022-11-24T21:50:54.720Z,2.40
2022-11-24T21:53:45.286Z,2.60
2022-11-24T21:59:23.581Z,2.70
2022-11-24T22:05:17.434Z,2.57
2022-11-24T22:10:54.143Z,2.30
2022-11-24T22:16:30.436Z,1.97
2022-11-24T22:19:18.824Z,2.30
2022-11-24T22:24:54.920Z,2.30
2022-11-24T22:30:26.692Z,2.93
2022-11-24T22:36:03.272Z,2.13
2022-11-24T22:41:36.727Z,2.47
2022-11-24T22:44:25.113Z,2.50
2022-11-24T22:47:14.211Z,2.50
2022-11-24T22:52:41.489Z,2.50
2022-11-24T22:58:23.632Z,2.40
2022-11-24T23:04:04.119Z,2.17
2022-11-24T23:12:26.236Z,2.30
2022-11-24T23:18:07.251Z,1.70
2022-11-24T23:23:46.838Z,1.80
2022-11-24T23:26:42.324Z,2.00
2022-11-24T23:32:16.431Z,4.20
2022-11-24T23:38:06.985Z,4.37
2022-11-24T23:40:42.087Z,4.63
2022-11-24T23:46:03.219Z,4.17
2022-11-24T23:51:41.087Z,4.23
2022-11-24T23:54:30.149Z,4.63
2022-11-24T23:57:18.399Z,4.17
